Wednesday, August 20, 2014
18:37 UTC
  |  Log In   |  Register Free
Airport Search:

Talladega Municipal Airport
(KASN)

Talladega Municipal Airport Diagram
No Airport Diagram Available

FAA data valid effective July 24, 2014 until September 18, 2014 (unless otherwise noted).

 
 
 
 
 
 
 
 
 
 
 
 
 
 

Current Aviation Weather for Talladega Municipal Airport (KASN)

The most recent METAR observation for KANB was updated at: 1753 UTC
METAR Summary (Translated METAR)
KANB
281753Z AUTO 32013G19KT 10SM CLR 33/17 A2996 RMK AO2 SLP132 T03280172 10328 20250 58006
KGAD
(25.8 nm NW from KANB)
281835Z 33010G15KT 10SM CLR 31/17 A2996 RMK AO1
TAF Summary (Translated TAF)
KANB
201727Z 2018/2118 25007KT P6SM SCT035 FM210100 00000KT P6SM SKC FM211500 26004KT P6SM FEW045
  Airport Weather Conditions for KASN

Current weather conditions are
not available for ASN


The nearest NOAA weather station
is at ANB, (9.7 nm NE from ASN)
  
 Current Weather at ANB
90° F
Fair
West winds at 9.2 mph
ANB NOAA Radar

Pressure: 30.06 in
Humidity: 58%
Wind: West at 9.2 MPH (8 KT)
Dew Point: 73.0°F
Visibility: 10.00 mi


Airport Weather Forecast for KASN

Translated METAR and TAF for KANB
Translated METAR for KANB (1830 UTC 20 August 2014)
found at http://aviationweather.gov/adds/metars/
 
METAR text: KANB 201753Z AUTO 26008KT 10SM CLR 32/23 A3006 RMK AO2 SLP169 T03220228 10328 20222 58009
Conditions at: KANB (ANNISTON , AL, US) observed 1753 UTC 20 August 2014
Temperature: 32.2°C (90°F)
Dewpoint: 22.8°C (73°F) [RH = 58%]
Pressure (altimeter): 30.06 inches Hg (1018.0 mb)
[Sea-level pressure: 1016.9 mb]
Winds: from the W (260 degrees) at 9 MPH (8 knots; 4.2 m/s)
Visibility: 10 or more miles (16+ km)
Ceiling: at least 12,000 feet AGL
Clouds: sky clear below 12,000 feet AGL
Weather: automated observation with no human augmentation;
there may or may not be significant weather present at this time
Translated TAF for KANB
Forecast for: KANB (ANNISTON , AL, US)
TAF Text: KANB 201727Z 2018/2118 25007KT P6SM SCT035
Forecast period: 1800 UTC 20 August 2014 to 0100 UTC 21 August 2014
Forecast type: FROM: standard forecast or significant change
Winds: from the WSW (250 degrees) at 8 MPH (7 knots; 3.6 m/s)
Visibility: 6 or more miles (10+ km)
Clouds: scattered clouds at 3500 feet AGL
Weather: no significant weather forecast for this period
TAF Text: FM210100 00000KT P6SM SKC
Forecast period: 0100 to 1500 UTC 21 August 2014
Forecast type: FROM: standard forecast or significant change
Winds: calm
Visibility: 6 or more miles (10+ km)
Clouds: clear skies
Weather: no significant weather forecast for this period
TAF Text: FM211500 26004KT P6SM FEW045
Forecast period: 1500 to 1800 UTC 21 August 2014
Forecast type: FROM: standard forecast or significant change
Winds: from the W (260 degrees) at 5 MPH (4 knots; 2.1 m/s)
Visibility: 6 or more miles (10+ km)
Clouds: few clouds at 4500 feet AGL
Weather: no significant weather forecast for this period

Find All Airport Services Find A Hotel Find A Rental Car Find A Golf Course Find A Restaurant $100 Hamburger



FBO's on the Field
FBO Company Facility Photos Services Transportation Aviation Fuel Prices: Prices include tax
Catering Weather Repair Courtesy Rental Type 100LL JetA JetA+ MOGAS 8087
 
Talladega Municipal

This FBO has not yet been rated
FS:Texaco
Last Updated: Aug-12
Login to update fuel prices
SS:
Contact Talladega MunicipalMore FBO Information
 
Add another FBO Facility Photos Catering Weather Repair Courtesy Rental Type 100LL JetA JetA+ MOGAS 8087
Services Transportation Aviation Fuel Prices: Prices include tax


GlobalAir.com Airport Resource Center model-print
model-print
model-print
model-print